Portada
METAR-TAF:

METAR-TAF

Aeropuertos :

Aeropuerto Internacional Princesa Juliana

Sint Maarten, Antillas Neerlandesas

latitud: 18-03N, longitud: 063-07W, altitud: 4 m

Observación

El informe se hizo hace 36 minutos, a las 18:00 UTC
Viento 15 kt del este, variando entre este-noreste y sureste
Temperatura 28°C
Humedad 66%
Presión 1016 hPa
Visibilidad 10 km o más
Escasas nubes a una altura de 1800 ft

METAR: TNCM 251800Z 10015KT 070V140 9999 FEW018 28/21 Q1016 A3001 NOSIG

Hora: 14:36 (18:36 UTC)

Pronóstico

El informe se hizo hace 50 minutos, a las 17:46 UTC
Pronóstico válido del 25 a las 18 UTC al 26 a las 18 UTC
Viento 15 kt del este
Visibilidad: 10 km
Nubes dispersas a una altura de 2000 ft
chaparrones en las proximidades

TAF: TNCM 251746Z 2518/2618 10015KT P6SM VCSH SCT020

Observaciones y pronósticos meteorológicos de más de 4000 aeropuertos (mensajes METAR y TAF).

Los puntos amarillos y rojos representan las estaciones disponibles.

Ponga el ratón en el punto deseado para ver el nombre de la estación.

Haga clic para ver las observaciones y los pronósticos meteorológicos.

Para cambiar el mapa : haga clic en los botones verdes con una cruz de color negro para hacer un zoom, en el botón verde con un guión para alejar o en las flechas verdes para mapas adyacentes.


METAR-TAF: